createdAt,value
2023-05-17T00:02:03.811Z,7.68
2023-05-17T00:04:31.061Z,7.88
2023-05-17T00:06:58.205Z,7.25
2023-05-17T00:09:25.431Z,7.30
2023-05-17T00:11:52.604Z,7.63
2023-05-17T00:14:19.731Z,7.40
2023-05-17T00:16:46.845Z,7.47
2023-05-17T00:19:14.289Z,7.50
2023-05-17T00:21:41.739Z,7.65
2023-05-17T00:24:09.543Z,7.03
2023-05-17T00:26:36.965Z,7.45
2023-05-17T00:29:04.125Z,7.95
2023-05-17T00:31:31.304Z,7.30
2023-05-17T00:33:58.446Z,6.95
2023-05-17T00:36:25.894Z,7.20
2023-05-17T00:38:53.049Z,7.45
2023-05-17T00:41:20.180Z,7.70
2023-05-17T00:43:47.314Z,7.80
2023-05-17T00:46:14.533Z,7.82
2023-05-17T00:48:42.821Z,7.70
2023-05-17T00:51:11.826Z,7.85
2023-05-17T00:53:39.705Z,8.23
2023-05-17T00:56:07.115Z,7.95
2023-05-17T00:58:34.384Z,8.27
2023-05-17T01:01:02.040Z,9.35
2023-05-17T01:03:29.551Z,8.63
2023-05-17T01:05:56.923Z,8.20
2023-05-17T01:08:24.141Z,7.93
2023-05-17T01:11:21.664Z,8.02
2023-05-17T01:13:57.898Z,7.97
2023-05-17T01:16:39.290Z,8.05
2023-05-17T01:19:26.642Z,7.75
2023-05-17T01:22:33.137Z,8.13
2023-05-17T01:25:23.521Z,7.72
2023-05-17T01:27:54.513Z,8.80
2023-05-17T01:30:25.229Z,8.25
2023-05-17T01:35:20.478Z,7.95
2023-05-17T01:37:48.044Z,8.45
2023-05-17T01:40:17.068Z,8.40
2023-05-17T01:42:45.602Z,8.50
2023-05-17T01:45:24.837Z,9.52
2023-05-17T01:48:01.701Z,9.07
2023-05-17T01:50:32.960Z,9.15
2023-05-17T01:53:08.136Z,9.13
2023-05-17T01:55:44.208Z,8.65
2023-05-17T01:58:12.817Z,8.50
2023-05-17T02:00:41.953Z,8.20
2023-05-17T02:03:22.054Z,8.27
2023-05-17T02:05:53.446Z,8.88
2023-05-17T02:08:20.598Z,8.90
2023-05-17T02:10:47.737Z,8.57
2023-05-17T02:13:14.950Z,8.70
2023-05-17T02:15:42.270Z,8.25
2023-05-17T02:18:11.794Z,8.60
2023-05-17T02:20:59.559Z,9.03
2023-05-17T02:23:26.839Z,9.60
2023-05-17T02:25:53.986Z,9.93
2023-05-17T02:28:21.123Z,8.80
2023-05-17T02:30:48.246Z,8.85
2023-05-17T02:33:15.376Z,10.38
2023-05-17T02:35:42.565Z,10.77
2023-05-17T02:38:09.925Z,8.95
2023-05-17T02:40:37.164Z,8.32
2023-05-17T02:43:04.333Z,8.50
2023-05-17T02:45:36.549Z,8.88
2023-05-17T02:48:03.807Z,9.45
2023-05-17T02:50:31.041Z,9.05
2023-05-17T02:52:59.180Z,8.52
2023-05-17T02:55:26.476Z,9.10
2023-05-17T02:57:54.049Z,9.95
2023-05-17T03:00:24.906Z,8.73
2023-05-17T03:02:52.863Z,10.45
2023-05-17T03:05:20.116Z,8.38
2023-05-17T03:07:50.371Z,9.05
2023-05-17T03:10:17.530Z,9.10
2023-05-17T03:12:46.390Z,10.70
2023-05-17T03:15:15.903Z,8.88
2023-05-17T03:17:43.647Z,9.27
2023-05-17T03:20:11.336Z,9.02
2023-05-17T03:22:38.625Z,10.13
2023-05-17T03:25:06.906Z,9.75
2023-05-17T03:27:35.316Z,8.05
2023-05-17T03:30:02.808Z,8.88
2023-05-17T03:32:32.344Z,8.20
2023-05-17T03:34:59.769Z,9.10
2023-05-17T03:37:28.810Z,8.18
2023-05-17T03:39:56.163Z,8.80
2023-05-17T03:42:23.794Z,8.10
2023-05-17T03:44:52.357Z,8.00
2023-05-17T03:47:23.927Z,8.40
2023-05-17T03:49:51.525Z,8.32
2023-05-17T03:52:18.952Z,8.30
2023-05-17T03:54:49.036Z,8.40
2023-05-17T03:57:17.042Z,10.18
2023-05-17T03:59:45.220Z,9.80
2023-05-17T04:02:12.475Z,11.82
2023-05-17T04:04:39.658Z,7.32
2023-05-17T04:07:07.401Z,8.48
2023-05-17T04:09:35.217Z,8.55
2023-05-17T04:12:02.475Z,8.07
2023-05-17T04:14:30.676Z,7.80
2023-05-17T04:16:59.656Z,7.68
2023-05-17T04:19:27.060Z,7.95
2023-05-17T04:21:55.041Z,6.78
2023-05-17T04:24:24.573Z,6.63
2023-05-17T04:26:52.964Z,7.45
2023-05-17T04:29:24.627Z,7.30
2023-05-17T04:31:51.834Z,6.28
2023-05-17T04:34:19.473Z,6.55
2023-05-17T04:36:46.651Z,5.68
2023-05-17T04:39:14.276Z,5.72
2023-05-17T04:41:41.610Z,6.03
2023-05-17T04:44:11.430Z,5.97
2023-05-17T04:46:38.569Z,5.93
2023-05-17T04:49:07.597Z,6.40
2023-05-17T04:51:34.970Z,6.55
2023-05-17T04:54:06.932Z,6.10
2023-05-17T04:56:36.569Z,5.03
2023-05-17T04:59:07.082Z,4.20
2023-05-17T05:01:37.487Z,5.05
2023-05-17T05:04:07.275Z,4.80
2023-05-17T05:06:40.902Z,3.90
2023-05-17T05:09:08.673Z,4.07
2023-05-17T05:11:37.590Z,3.67
2023-05-17T05:14:05.928Z,3.70
2023-05-17T05:16:33.830Z,3.17
2023-05-17T05:19:01.530Z,4.22
2023-05-17T05:21:29.449Z,4.22
2023-05-17T05:23:56.669Z,7.10
2023-05-17T05:26:23.893Z,3.85
2023-05-17T05:28:52.123Z,3.55
2023-05-17T05:31:19.466Z,3.67
2023-05-17T05:33:52.124Z,3.53
2023-05-17T05:36:19.982Z,4.03
2023-05-17T05:38:48.775Z,4.90
2023-05-17T05:41:16.691Z,3.42
2023-05-17T05:43:44.104Z,4.18
2023-05-17T05:46:11.611Z,4.40
2023-05-17T05:48:42.115Z,3.70
2023-05-17T05:51:09.860Z,4.10
2023-05-17T05:53:40.259Z,4.38
2023-05-17T05:56:07.551Z,3.60
2023-05-17T05:58:34.816Z,4.18
2023-05-17T06:01:06.107Z,3.83
2023-05-17T06:03:33.888Z,3.58
2023-05-17T06:06:01.181Z,2.80
2023-05-17T06:08:28.572Z,4.25
2023-05-17T06:10:55.932Z,3.50
2023-05-17T06:13:23.061Z,5.18
2023-05-17T06:15:50.244Z,2.97
2023-05-17T06:18:17.601Z,2.75
2023-05-17T06:20:44.761Z,2.60
2023-05-17T06:23:11.983Z,2.70
2023-05-17T06:25:40.305Z,4.20
2023-05-17T06:28:09.415Z,2.30
2023-05-17T06:30:36.869Z,2.85
2023-05-17T06:33:04.382Z,2.28
2023-05-17T06:35:40.444Z,2.20
2023-05-17T06:38:17.503Z,2.53
2023-05-17T06:40:44.739Z,1.98
2023-05-17T06:43:12.015Z,2.00
2023-05-17T06:45:39.122Z,2.17
2023-05-17T06:48:06.747Z,2.03
2023-05-17T06:50:33.951Z,2.13
2023-05-17T06:53:01.265Z,2.00
2023-05-17T06:55:30.236Z,2.20
2023-05-17T06:58:00.306Z,2.70
2023-05-17T07:00:28.615Z,2.30
2023-05-17T07:02:56.641Z,2.60
2023-05-17T07:05:24.692Z,2.00
2023-05-17T07:07:52.327Z,2.05
2023-05-17T07:10:19.594Z,2.00
2023-05-17T07:12:47.527Z,1.98
2023-05-17T07:15:14.656Z,1.80
2023-05-17T07:17:42.051Z,2.10
2023-05-17T07:20:09.732Z,2.17
2023-05-17T07:22:38.083Z,1.90
2023-05-17T07:25:06.092Z,2.15
2023-05-17T07:27:33.477Z,2.40
2023-05-17T07:30:01.436Z,2.58
2023-05-17T07:32:34.452Z,2.38
2023-05-17T07:35:03.211Z,2.20
2023-05-17T07:37:34.353Z,4.68
2023-05-17T07:40:02.194Z,2.67
2023-05-17T07:42:34.025Z,2.20
2023-05-17T07:45:01.306Z,2.50
2023-05-17T07:47:34.668Z,2.60
2023-05-17T07:50:01.974Z,2.60
2023-05-17T07:52:32.167Z,2.92
2023-05-17T07:54:59.415Z,2.58
2023-05-17T07:57:27.545Z,2.63
2023-05-17T07:59:54.741Z,2.30
2023-05-17T08:02:21.921Z,2.38
2023-05-17T08:04:49.204Z,2.30
2023-05-17T08:07:16.477Z,2.20
2023-05-17T08:09:45.583Z,2.15
2023-05-17T08:12:12.984Z,3.90
2023-05-17T08:14:40.738Z,2.58
2023-05-17T08:17:07.989Z,2.30
2023-05-17T08:19:35.205Z,2.38
2023-05-17T08:22:02.381Z,2.85
2023-05-17T08:24:29.595Z,2.33
2023-05-17T08:26:56.770Z,2.42
2023-05-17T08:29:24.195Z,2.30
2023-05-17T08:31:52.734Z,3.00
2023-05-17T08:34:19.894Z,2.83
2023-05-17T08:36:47.684Z,3.25
2023-05-17T08:39:15.608Z,2.70
2023-05-17T08:41:42.707Z,3.00
2023-05-17T08:44:10.978Z,3.40
2023-05-17T08:46:40.098Z,2.50
2023-05-17T08:49:08.635Z,2.28
2023-05-17T08:51:37.071Z,2.72
2023-05-17T08:54:06.351Z,3.00
2023-05-17T08:56:35.810Z,2.60
2023-05-17T08:59:06.518Z,4.00
2023-05-17T09:01:33.815Z,2.83
2023-05-17T09:04:01.289Z,2.35
2023-05-17T09:06:30.423Z,2.30
2023-05-17T09:08:58.665Z,2.58
2023-05-17T09:11:30.894Z,2.33
2023-05-17T09:14:02.950Z,3.10
2023-05-17T09:16:31.450Z,2.67
2023-05-17T09:18:59.898Z,2.20
2023-05-17T09:21:28.383Z,2.40
2023-05-17T09:26:26.302Z,2.50
2023-05-17T09:28:53.684Z,3.08
2023-05-17T09:31:21.199Z,2.45
2023-05-17T09:33:50.283Z,2.70
2023-05-17T09:36:19.494Z,2.67
2023-05-17T09:39:02.157Z,2.97
2023-05-17T09:41:33.571Z,3.05
2023-05-17T09:44:02.306Z,2.40
2023-05-17T09:46:34.938Z,6.45
2023-05-17T09:49:04.292Z,3.53
2023-05-17T09:51:40.440Z,2.50
2023-05-17T09:54:07.651Z,2.85
2023-05-17T09:56:35.690Z,2.80
2023-05-17T09:59:04.571Z,2.60
2023-05-17T10:01:32.267Z,2.42
2023-05-17T10:04:03.035Z,4.57
2023-05-17T10:06:46.067Z,3.08
2023-05-17T10:09:15.921Z,2.45
2023-05-17T10:11:46.824Z,2.80
2023-05-17T10:14:34.314Z,2.70
2023-05-17T10:17:03.555Z,3.00
2023-05-17T10:19:32.063Z,2.17
2023-05-17T10:22:11.001Z,3.25
2023-05-17T10:24:49.026Z,2.50
2023-05-17T10:27:17.241Z,2.67
2023-05-17T10:29:47.725Z,2.58
2023-05-17T10:32:18.342Z,2.30
2023-05-17T10:34:51.776Z,7.00
2023-05-17T10:37:23.219Z,3.00
2023-05-17T10:39:52.371Z,4.10
2023-05-17T10:42:22.494Z,2.55
2023-05-17T10:44:49.751Z,3.22
2023-05-17T10:47:17.449Z,3.08
2023-05-17T10:49:48.066Z,2.40
2023-05-17T10:52:21.897Z,2.45
2023-05-17T10:54:53.547Z,3.03
2023-05-17T10:57:49.988Z,2.60
2023-05-17T11:00:22.222Z,3.13
2023-05-17T11:02:50.888Z,3.33
2023-05-17T11:05:27.596Z,2.60
2023-05-17T11:08:17.300Z,2.55
2023-05-17T11:11:14.164Z,3.10
2023-05-17T11:13:46.562Z,2.50
2023-05-17T11:16:18.128Z,3.38
2023-05-17T11:18:53.718Z,3.50
2023-05-17T11:21:22.855Z,2.80
2023-05-17T11:23:56.732Z,3.38
2023-05-17T11:26:29.469Z,2.92
2023-05-17T11:29:02.417Z,3.35
2023-05-17T11:31:31.489Z,3.50
2023-05-17T11:34:00.677Z,3.00
2023-05-17T11:36:27.782Z,2.80
2023-05-17T11:39:15.467Z,2.50
2023-05-17T11:41:53.573Z,8.00
2023-05-17T11:44:32.385Z,4.43
2023-05-17T11:47:03.561Z,4.18
2023-05-17T11:49:38.329Z,3.42
2023-05-17T11:52:07.158Z,2.92
2023-05-17T11:54:35.468Z,3.38
2023-05-17T11:57:04.326Z,2.70
2023-05-17T11:59:39.508Z,4.10
2023-05-17T12:02:07.204Z,2.47
2023-05-17T12:04:39.260Z,2.72
2023-05-17T12:07:10.851Z,2.50
2023-05-17T12:09:40.543Z,2.38
2023-05-17T12:12:08.871Z,2.65
2023-05-17T12:14:36.390Z,3.10
2023-05-17T12:17:06.051Z,2.95
2023-05-17T12:19:33.410Z,3.00
2023-05-17T12:22:08.495Z,2.78
2023-05-17T12:24:41.178Z,3.30
2023-05-17T12:27:09.183Z,3.25
2023-05-17T12:29:36.453Z,2.45
2023-05-17T12:32:05.755Z,2.50
2023-05-17T12:34:33.230Z,2.40
2023-05-17T12:37:00.629Z,2.80
2023-05-17T12:39:27.820Z,3.47
2023-05-17T12:41:55.501Z,3.45
2023-05-17T12:44:22.824Z,3.72
2023-05-17T12:46:59.076Z,3.88
2023-05-17T12:49:26.230Z,2.17
2023-05-17T12:51:53.578Z,3.50
2023-05-17T12:54:28.643Z,2.42
2023-05-17T12:56:57.172Z,4.20
2023-05-17T12:59:29.190Z,10.48
2023-05-17T13:01:58.187Z,2.50
2023-05-17T13:04:33.691Z,2.60
2023-05-17T13:07:02.970Z,2.78
2023-05-17T13:09:32.647Z,2.25
2023-05-17T13:14:47.023Z,2.47
2023-05-17T13:17:25.264Z,2.80
2023-05-17T13:19:53.160Z,3.15
2023-05-17T13:22:20.528Z,3.30
2023-05-17T13:24:47.662Z,2.53
2023-05-17T13:27:14.825Z,3.08
2023-05-17T13:29:43.380Z,4.28
2023-05-17T13:32:12.087Z,2.65
2023-05-17T13:34:40.753Z,3.70
2023-05-17T13:37:11.461Z,2.80
2023-05-17T13:39:41.157Z,3.30
2023-05-17T13:42:08.877Z,2.88
2023-05-17T13:44:36.109Z,2.75
2023-05-17T13:47:03.323Z,3.22
2023-05-17T13:49:30.467Z,2.60
2023-05-17T13:51:57.821Z,2.60
2023-05-17T13:54:25.069Z,2.90
2023-05-17T13:56:52.348Z,2.30
2023-05-17T13:59:19.894Z,2.70
2023-05-17T14:01:46.964Z,3.72
2023-05-17T14:04:14.245Z,2.35
2023-05-17T14:06:42.201Z,2.53
2023-05-17T14:09:10.652Z,2.70
2023-05-17T14:11:38.827Z,4.38
2023-05-17T14:14:06.199Z,2.50
2023-05-17T14:16:33.340Z,2.30
2023-05-17T14:19:04.200Z,2.10
2023-05-17T14:21:32.924Z,2.13
2023-05-17T14:24:00.059Z,2.83
2023-05-17T14:26:27.357Z,3.00
2023-05-17T14:28:54.536Z,2.63
2023-05-17T14:31:21.819Z,2.58
2023-05-17T14:33:48.989Z,2.88
2023-05-17T14:36:16.603Z,2.67
2023-05-17T14:38:43.761Z,2.50
2023-05-17T14:41:10.941Z,2.78
2023-05-17T14:43:38.092Z,2.35
2023-05-17T14:46:05.284Z,2.80
2023-05-17T14:48:34.039Z,3.10
2023-05-17T14:51:03.489Z,3.67
2023-05-17T14:53:31.116Z,2.85
2023-05-17T14:55:59.118Z,2.53
2023-05-17T14:58:26.688Z,2.78
2023-05-17T15:01:04.975Z,4.10
2023-05-17T15:03:33.869Z,3.00
2023-05-17T15:06:03.293Z,4.50
2023-05-17T15:08:32.705Z,3.72
2023-05-17T15:11:00.133Z,2.53
2023-05-17T15:13:27.532Z,3.40
2023-05-17T15:15:55.300Z,2.70
2023-05-17T15:18:22.650Z,2.90
2023-05-17T15:20:50.083Z,2.40
2023-05-17T15:23:17.608Z,2.83
2023-05-17T15:25:44.794Z,3.05
2023-05-17T15:28:12.287Z,2.70
2023-05-17T15:30:41.478Z,2.83
2023-05-17T15:33:09.138Z,3.00
2023-05-17T15:35:37.205Z,2.58
2023-05-17T15:38:07.647Z,3.95
2023-05-17T15:43:01.739Z,4.35
2023-05-17T15:45:29.363Z,3.78
2023-05-17T15:47:57.336Z,4.50
2023-05-17T15:50:24.760Z,3.10
2023-05-17T15:52:51.996Z,4.15
2023-05-17T15:55:19.607Z,4.30
2023-05-17T15:57:47.894Z,4.93
2023-05-17T16:00:15.706Z,4.85
2023-05-17T16:02:43.149Z,5.15
2023-05-17T16:05:10.680Z,4.22
2023-05-17T16:07:38.116Z,4.22
2023-05-17T16:10:05.710Z,10.38
2023-05-17T16:12:32.881Z,3.38
2023-05-17T16:15:00.381Z,2.97
2023-05-17T16:17:27.653Z,4.10
2023-05-17T16:19:54.896Z,4.65
2023-05-17T16:22:22.390Z,3.60
2023-05-17T16:24:53.794Z,4.00
2023-05-17T16:27:21.966Z,4.70
2023-05-17T16:29:49.578Z,6.05
2023-05-17T16:32:16.862Z,5.63
2023-05-17T16:34:44.080Z,5.35
2023-05-17T16:37:11.380Z,4.68
2023-05-17T16:39:38.703Z,9.10
2023-05-17T16:42:06.244Z,6.30
2023-05-17T16:44:33.442Z,6.63
2023-05-17T16:47:01.106Z,6.45
2023-05-17T16:49:46.754Z,6.78
2023-05-17T16:52:13.928Z,7.85
2023-05-17T16:54:41.358Z,6.72
2023-05-17T16:57:08.794Z,7.32
2023-05-17T16:59:36.186Z,5.32
2023-05-17T17:02:04.484Z,13.20
2023-05-17T17:04:32.207Z,8.80
2023-05-17T17:07:01.794Z,7.18
2023-05-17T17:09:28.938Z,6.03
2023-05-17T17:11:56.208Z,5.55
2023-05-17T17:14:24.414Z,5.97
2023-05-17T17:16:51.567Z,6.60
2023-05-17T17:19:18.890Z,6.93
2023-05-17T17:21:46.214Z,5.57
2023-05-17T17:24:13.730Z,8.07
2023-05-17T17:26:41.143Z,6.00
2023-05-17T17:29:08.548Z,6.70
2023-05-17T17:31:35.878Z,6.55
2023-05-17T17:34:05.131Z,5.72
2023-05-17T17:36:32.292Z,5.80
2023-05-17T17:38:59.533Z,6.13
2023-05-17T17:41:26.723Z,4.85
2023-05-17T17:43:53.939Z,5.72
2023-05-17T17:46:21.409Z,5.53
2023-05-17T17:48:48.534Z,6.35
2023-05-17T17:51:15.713Z,7.75
2023-05-17T17:53:42.795Z,6.65
2023-05-17T17:56:09.963Z,7.60
2023-05-17T17:58:37.107Z,7.03
2023-05-17T18:01:04.465Z,8.30
2023-05-17T18:03:31.817Z,7.57
2023-05-17T18:06:00.048Z,6.93
2023-05-17T18:08:27.221Z,7.13
2023-05-17T18:10:54.401Z,7.20
2023-05-17T18:13:21.550Z,6.93
2023-05-17T18:15:48.713Z,7.03
2023-05-17T18:18:16.224Z,7.18
2023-05-17T18:20:43.529Z,12.18
2023-05-17T18:23:10.808Z,8.25
2023-05-17T18:25:38.340Z,7.25
2023-05-17T18:28:07.280Z,8.57
2023-05-17T18:30:35.958Z,7.55
2023-05-17T18:33:03.184Z,7.10
2023-05-17T18:35:30.328Z,10.05
2023-05-17T18:37:57.491Z,10.00
2023-05-17T18:40:26.271Z,9.23
2023-05-17T18:42:53.706Z,10.07
2023-05-17T18:45:21.662Z,11.27
2023-05-17T18:47:48.903Z,10.60
2023-05-17T18:50:16.126Z,10.82
2023-05-17T18:52:43.413Z,10.90
2023-05-17T18:55:10.624Z,11.48
2023-05-17T18:57:38.140Z,10.43
2023-05-17T19:00:06.186Z,9.45
2023-05-17T19:02:34.280Z,11.05
2023-05-17T19:05:01.529Z,10.70
2023-05-17T19:07:29.323Z,11.05
2023-05-17T19:09:56.724Z,11.57
2023-05-17T19:12:23.884Z,13.40
2023-05-17T19:14:51.284Z,13.75
2023-05-17T19:17:18.485Z,12.88
2023-05-17T19:19:46.058Z,11.65
2023-05-17T19:22:14.423Z,11.80
2023-05-17T19:24:41.751Z,12.82
2023-05-17T19:27:10.527Z,10.85
2023-05-17T19:29:38.056Z,10.63
2023-05-17T19:32:06.242Z,11.73
2023-05-17T19:34:33.502Z,10.73
2023-05-17T19:37:00.755Z,7.05
2023-05-17T19:39:28.048Z,8.90
2023-05-17T19:41:55.609Z,8.63
2023-05-17T19:44:22.726Z,8.18
2023-05-17T19:46:50.106Z,8.77
2023-05-17T19:49:17.388Z,7.95
2023-05-17T19:51:46.260Z,10.07
2023-05-17T19:54:13.376Z,9.60
2023-05-17T19:56:40.668Z,8.35
2023-05-17T19:59:07.965Z,8.07
2023-05-17T20:01:35.167Z,11.02
2023-05-17T20:04:02.617Z,8.70
2023-05-17T20:06:29.927Z,7.80
2023-05-17T20:08:57.200Z,8.98
2023-05-17T20:11:24.386Z,9.70
2023-05-17T20:13:51.574Z,9.45
2023-05-17T20:16:18.904Z,9.52
2023-05-17T20:18:46.366Z,8.43
2023-05-17T20:21:22.931Z,7.80
2023-05-17T20:23:51.538Z,7.00
2023-05-17T20:26:25.751Z,6.78
2023-05-17T20:28:53.951Z,9.05
2023-05-17T20:31:21.347Z,8.95
2023-05-17T20:33:48.530Z,7.60
2023-05-17T20:36:15.814Z,7.93
2023-05-17T20:38:43.033Z,7.90
2023-05-17T20:41:11.229Z,7.85
2023-05-17T20:43:38.420Z,8.80
2023-05-17T20:46:09.957Z,8.07
2023-05-17T20:48:39.020Z,8.07
2023-05-17T20:51:06.366Z,8.52
2023-05-17T20:53:33.500Z,7.60
2023-05-17T20:56:00.770Z,8.23
2023-05-17T20:58:30.710Z,8.02
2023-05-17T21:00:58.889Z,8.30
2023-05-17T21:03:28.618Z,8.43
2023-05-17T21:05:56.109Z,9.68
2023-05-17T21:08:23.401Z,9.23
2023-05-17T21:10:50.878Z,12.63
2023-05-17T21:13:18.128Z,10.98
2023-05-17T21:15:45.395Z,8.68
2023-05-17T21:18:12.675Z,9.10
2023-05-17T21:20:40.016Z,9.25
2023-05-17T21:23:07.248Z,9.43
2023-05-17T21:25:35.252Z,8.00
2023-05-17T21:28:02.429Z,8.75
2023-05-17T21:30:29.800Z,9.18
2023-05-17T21:32:57.264Z,9.10
2023-05-17T21:35:24.397Z,8.80
2023-05-17T21:37:51.675Z,8.00
2023-05-17T21:40:18.952Z,8.90
2023-05-17T21:42:46.260Z,8.35
2023-05-17T21:45:14.821Z,8.18
2023-05-17T21:47:42.050Z,8.68
2023-05-17T21:50:10.633Z,8.80
2023-05-17T21:52:37.813Z,8.30
2023-05-17T21:55:05.922Z,8.65
2023-05-17T21:57:36.354Z,8.25
2023-05-17T22:00:06.030Z,8.52
2023-05-17T22:02:36.187Z,9.20
2023-05-17T22:05:03.639Z,8.45
2023-05-17T22:07:32.250Z,10.02
2023-05-17T22:10:00.483Z,8.75
2023-05-17T22:12:27.697Z,8.50
2023-05-17T22:14:56.866Z,9.77
2023-05-17T22:17:39.261Z,10.68
2023-05-17T22:20:17.036Z,9.63
2023-05-17T22:22:44.367Z,8.77
2023-05-17T22:25:11.753Z,9.38
2023-05-17T22:27:38.965Z,8.45
2023-05-17T22:30:07.786Z,9.13
2023-05-17T22:32:37.449Z,8.80
2023-05-17T22:35:04.997Z,7.83
2023-05-17T22:37:33.010Z,8.95
2023-05-17T22:40:00.371Z,8.75
2023-05-17T22:42:27.660Z,8.52
2023-05-17T22:44:54.777Z,9.00
2023-05-17T22:47:23.413Z,8.88
2023-05-17T22:49:52.670Z,9.02
2023-05-17T22:52:20.275Z,8.85
2023-05-17T22:54:47.515Z,9.52
2023-05-17T22:57:14.620Z,9.75
2023-05-17T22:59:44.009Z,9.57
2023-05-17T23:02:14.735Z,9.70
2023-05-17T23:04:42.006Z,9.70
2023-05-17T23:07:10.245Z,9.75
2023-05-17T23:09:40.945Z,9.63
2023-05-17T23:12:09.092Z,10.48
2023-05-17T23:14:37.043Z,10.43
2023-05-17T23:17:05.192Z,11.45
2023-05-17T23:19:36.017Z,11.27
2023-05-17T23:22:04.196Z,10.45
2023-05-17T23:24:31.621Z,10.25
2023-05-17T23:26:59.087Z,10.38
2023-05-17T23:29:26.330Z,11.10
2023-05-17T23:31:53.785Z,10.57
2023-05-17T23:34:22.157Z,11.23
2023-05-17T23:36:49.392Z,11.60
2023-05-17T23:39:16.545Z,10.80
2023-05-17T23:41:43.694Z,11.90
2023-05-17T23:44:11.050Z,12.02
2023-05-17T23:46:38.313Z,11.55
2023-05-17T23:49:05.943Z,11.48
2023-05-17T23:51:35.030Z,12.68
2023-05-17T23:54:02.567Z,11.15
2023-05-17T23:56:30.089Z,12.15
2023-05-17T23:58:57.245Z,12.73
